Station: Williamson  

  Atmospheric Gas Attenuation - ITU Rec 676-11   ----------------- dB/100km -----------------
Date Time Temp RH % AH g/m3 Dew Point Wind Direction Speed kph Gust kph Barometer mB Rainfall Since 9am 24GHz 47GHz 76GHz 122GHz 134GHz 241GHz
08/05 12:30 23.8 23 4.95 1.4 15 26 1018.2 0 11.5 18.5 23.4 60.6 47.5 160.9
08/05 12:20 23.7 22 4.71 0.7 17 20 1018.6 0 11.0 18.2 22.7 58.8 45.2 152.7
08/05 12:10 23.8 23 4.95 1.4 19 24 1018.7 0 11.5 18.5 23.4 60.6 47.5 161.0
08/05 12:00 24.1 26 5.69 3.4 19 28 1018.8 0 13.1 19.4 25.6 66.6 54.9 187.1
08/05 11:50 23.7 26 5.56 3.1 15 20 1018.9 0 12.8 19.3 25.3 65.8 53.8 183.2
08/05 11:40 23 26 5.34 2.5 19 22 1019.1 0 12.4 19.2 24.8 64.5 52.0 176.7
08/05 11:30 22.9 26 5.31 2.4 20 30 1019.2 0 12.3 19.1 24.8 64.3 51.8 175.9
08/05 11:20 22 27 5.24 2.2 17 20 1019.3 0 12.2 19.2 24.8 64.4 51.6 175.2
08/05 11:10 22.3 27 5.33 2.4 30 35 1019.6 0 12.4 19.3 25.0 65.0 52.4 177.9
08/05 11:00 22.1 30 5.86 3.7 20 37 1019.7 0 13.5 20.0 26.8 69.7 58.1 198.1
08/05 10:50 22.4 30 5.96 4 17 24 1020 0 13.7 20.1 27.0 70.3 59.0 201.2
08/05 10:40 21.8 31 5.95 3.9 20 28 1020.1 0 13.7 20.2 27.2 70.8 59.3 202.3
08/05 10:30 22 31 6.02 4.1 26 37 1019.9 0 13.8 20.3 27.3 71.2 59.9 204.5
08/05 10:20 21.7 32 6.1 4.3 22 30 1020.1 0 14.0 20.5 27.7 72.2 61.0 208.3
08/05 10:10 21.2 34 6.3 4.7 26 37 1020.1 0 14.4 20.8 28.5 74.4 63.6 217.3
08/05 10:00 21 35 6.41 5 22 33 1020.1 0 14.7 21.0 29.0 75.6 65.0 222.1
08/05 09:50 20.3 36 6.33 4.8 28 35 1020.4 0 14.5 21.1 29.0 75.5 64.7 220.9
08/05 09:40 20.4 38 6.72 5.6 28 35 1020.4 0 15.3 21.6 30.3 79.0 69.0 236.0
08/05 09:30 20.5 39 6.94 6.1 22 37 1020 0 15.8 21.9 31.0 80.9 71.3 244.4
08/05 09:20 20.4 41 7.25 6.7 15 19 1020.2 0 16.4 22.3 32.1 83.9 75.0 257.3
08/05 09:10 19.8 38 6.49 5.1 26 33 1020.2 0 14.9 21.4 29.7 77.4 66.8 228.5
08/05 09:00 20 41 7.08 6.4 22 35 1019.9 0 16.1 22.2 31.6 82.7 73.4 251.6
08/05 08:50 19.6 42 7.09 6.3 26 30 1020 0 16.1 22.3 31.8 83.2 73.9 253.2
08/05 08:40 19.3 43 7.13 6.4 22 26 1020.2 0 16.2 22.4 32.1 83.9 74.6 255.8
08/05 08:30 19 44 7.17 6.5 24 33 1020 0 16.3 22.6 32.4 84.5 75.4 258.4
08/05 08:20 18.9 44 7.13 6.4 22 26 1020 0 16.2 22.5 32.3 84.3 75.0 257.1
08/05 08:10 18.4 44 6.92 5.9 24 30 1020 0 15.8 22.3 31.7 82.8 73.0 250.0
08/05 08:00 18.4 45 7.08 6.3 24 35 1020 0 16.2 22.6 32.3 84.3 74.9 256.6
08/05 07:50 18.2 45 6.99 6.1 22 24 1020.1 0 16.0 22.5 32.0 83.7 74.0 253.5
08/05 07:40 17.9 45 6.87 5.8 20 26 1019.9 0 15.7 22.4 31.7 82.8 72.9 249.4
08/05 07:30 17.9 45 6.87 5.8 20 30 1019.8 0 15.7 22.4 31.7 82.8 72.9 249.4
08/05 07:20 17.7 46 6.94 5.9 15 17 1019.7 0 15.9 22.5 32.0 83.7 73.9 252.9
08/05 07:10 17.5 46 6.86 5.8 20 26 1019.5 0 15.7 22.5 31.8 83.1 73.1 250.2
08/05 07:00 17.3 46 6.78 5.6 15 24 1019.4 0 15.6 22.4 31.6 82.5 72.3 247.4
08/05 06:50 17.1 46 6.7 5.4 11 13 1019.4 0 15.4 22.3 31.4 82.0 71.5 244.7
08/05 06:40 17.3 45 6.63 5.3 15 19 1019.3 0 15.3 22.2 31.1 81.1 70.5 241.2
08/05 06:30 17.5 44 6.56 5.1 17 26 1019 0 15.1 22.0 30.7 80.2 69.5 237.7
08/05 06:20 17.8 43 6.53 5.1 17 22 1018.9 0 15.0 21.9 30.5 79.6 68.9 235.6
08/05 06:10 17.8 43 6.53 5.1 17 22 1018.6 0 15.0 21.9 30.5 79.6 68.9 235.5
08/05 06:00 17.9 43 6.56 5.2 19 35 1018.4 0 15.1 21.9 30.6 79.7 69.1 236.4
08/05 05:50 18 43 6.6 5.2 15 22 1018.3 0 15.2 21.9 30.7 80.0 69.5 237.7
08/05 05:40 18.1 43 6.64 5.3 19 24 1018.2 0 15.2 22.0 30.8 80.3 69.9 239.0
08/05 05:30 18.3 43 6.72 5.5 20 30 1017.9 0 15.4 22.0 31.0 80.8 70.6 241.6
08/05 05:20 18.4 44 6.92 5.9 22 30 1017.9 0 15.8 22.3 31.6 82.6 72.9 249.5
08/05 05:10 18.4 44 6.92 5.9 15 20 1017.6 0 15.8 22.3 31.6 82.6 72.8 249.5
08/05 05:00 18.5 44 6.96 6 19 28 1017.6 0 15.9 22.3 31.7 82.8 73.2 250.8
08/05 04:50 18.6 44 7 6.1 17 24 1017.2 0 16.0 22.3 31.8 83.1 73.6 252.0
08/05 04:40 18.9 44 7.13 6.4 17 22 1017.3 0 16.2 22.4 32.1 84.0 74.8 256.5
08/05 04:30 19.1 43 7.05 6.2 20 30 1017.1 0 16.1 22.3 31.8 83.0 73.7 252.5
08/05 04:20 19.3 43 7.13 6.4 20 24 1017 0 16.2 22.3 32.0 83.6 74.4 255.1
08/05 04:10 19.3 44 7.3 6.8 22 28 1016.9 0 16.6 22.6 32.6 85.2 76.4 262.1
08/05 04:00 19.4 44 7.34 6.8 20 35 1016.8 0 16.7 22.6 32.7 85.4 76.8 263.4
08/05 03:50 19.1 46 7.54 7.2 20 26 1016.8 0 17.1 23.0 33.5 87.7 79.4 272.6
08/05 03:40 18.8 48 7.73 7.6 15 17 1016.7 0 17.5 23.3 34.3 89.8 82.0 281.6
08/05 03:30 18.9 49 7.94 8 15 20 1016.8 0 18.0 23.6 35.0 91.8 84.4 290.1
08/05 03:20 18.9 50 8.1 8.3 13 20 1016.9 0 18.3 23.8 35.6 93.4 86.4 296.9
08/05 03:10 19.1 49 8.03 8.1 19 22 1016.7 0 18.1 23.7 35.3 92.4 85.3 293.2
08/05 03:00 19.5 48 8.06 8.2 17 24 1016.6 0 18.2 23.6 35.2 92.2 85.2 293.0
08/05 02:50 19.4 49 8.17 8.4 13 15 1016.6 0 18.4 23.8 35.7 93.4 86.6 298.0
08/05 02:40 19.3 50 8.29 8.6 17 20 1016.6 0 18.7 24.0 36.1 94.7 88.2 303.4
08/05 02:30 19 53 8.64 9.2 9 15 1016.6 0 19.4 24.6 37.6 98.6 92.8 319.6
08/05 02:20 19.3 52 8.62 9.2 11 13 1016.6 0 19.4 24.5 37.4 98.0 92.2 317.6
08/05 02:10 19.5 51 8.56 9.1 11 13 1016.6 0 19.2 24.4 37.1 97.2 91.3 314.2
08/05 02:00 19.7 51 8.66 9.3 13 19 1016.5 0 19.4 24.5 37.3 97.9 92.2 317.7
08/05 01:50 19.6 52 8.78 9.5 13 17 1016.4 0 19.7 24.7 37.8 99.2 93.8 323.2
08/05 01:40 19.5 52 8.73 9.4 11 15 1016.5 0 19.6 24.6 37.7 98.8 93.3 321.5
08/05 01:30 19.5 53 8.89 9.7 13 17 1016.6 0 19.9 24.9 38.3 100.5 95.3 328.4
08/05 01:20 19.3 54 8.96 9.8 9 9 1016.6 0 20.1 25.0 38.6 101.4 96.4 332.3
08/05 01:10 19.1 55 9.02 9.9 9 11 1016.6 0 20.2 25.2 39.0 102.3 97.4 335.7
08/05 01:00 19.1 55 9.02 9.9 9 15 1016.7 0 20.2 25.2 39.0 102.3 97.4 335.8
08/05 00:50 19.3 54 8.96 9.8 9 11 1016.7 0 20.1 25.0 38.7 101.4 96.4 332.3
08/05 00:40 19.3 54 8.96 9.8 13 15 1016.7 0 20.1 25.0 38.7 101.4 96.4 332.3
08/05 00:30 19.2 55 9.07 9.9 13 17 1016.7 0 20.3 25.2 39.1 102.7 97.9 337.5
08/05 00:20 19.4 55 9.18 10.1 11 13 1016.9 0 20.5 25.3 39.4 103.5 99.1 341.6
08/05 00:10 19.9 54 9.28 10.3 9 11 1016.9 0 20.7 25.4 39.6 103.9 99.7 343.8
08/05 00:00 20.5 51 9.07 10 7 13 1016.8 0 20.3 24.9 38.5 101.0 96.3 332.1
07/05 23:50 20.4 53 9.38 10.5 6 9 1016.9 0 20.9 25.4 39.7 104.3 100.3 346.0
07/05 23:40 19.9 62 10.65 12.4 7 9 1016.9 0 23.6 27.5 44.9 118.1 117.2 405.0
07/05 23:30 20 60 10.37 12 4 9 1017 0 23.0 27.0 43.7 115.0 113.4 391.8
07/05 23:20 20.6 55 9.84 11.2 6 7 1017 0 21.9 26.0 41.4 108.7 105.8 365.3
07/05 23:10 20.6 55 9.84 11.2 7 7 1017 0 21.9 26.0 41.4 108.7 105.8 365.3
07/05 23:00 20.4 60 10.61 12.4 9 15 1017.2 0 23.5 27.3 44.5 117.0 116.0 400.7
07/05 22:50 19.2 72 11.87 14 9 13 1017.2 0 26.3 29.8 50.3 132.5 134.7 466.1
07/05 22:40 18.2 83 12.9 15.3 6 7 1017.3 0 28.5 31.9 55.4 146.1 151.1 523.1
07/05 22:30 18 87 13.36 15.8 2 6 1017.4 0 29.5 32.8 57.6 152.0 158.2 547.9
07/05 22:20 18.3 83 12.98 15.4 0 2 1017.4 0 28.7 32.0 55.7 146.9 152.1 526.5
07/05 22:10 18.8 81 13.04 15.5 9 11 1017.3 0 28.8 31.9 55.6 146.6 151.9 526.1
07/05 22:00 18.3 90 14.07 16.6 7 11 1017.4 0 31.0 34.0 60.6 159.9 168.0 582.2
07/05 21:50 18.3 96 15.01 17.7 6 7 1017.3 0 33.0 35.7 64.9 171.4 182.2 631.6
07/05 21:40 18.6 96 15.28 17.9 0 0 1017.3 0 33.6 36.1 65.9 174.1 185.6 643.5
07/05 21:30 18.6 95 15.12 17.8 2 6 1017.3 0 33.2 35.8 65.2 172.1 183.2 635.0
07/05 21:20 18.9 95 15.39 18.1 4 6 1017.3 0 33.8 36.2 66.2 174.8 186.5 646.8
07/05 21:10 18.9 94 15.23 17.9 0 0 1017.3 0 33.5 35.9 65.4 172.8 184.1 638.3
07/05 21:00 19.2 95 15.66 18.4 0 0 1017.3 0 34.4 36.5 67.2 177.5 189.9 658.7
07/05 20:50 19.3 93 15.42 18.1 0 0 1017.2 0 33.8 36.0 66.0 174.2 186.0 645.0
07/05 20:40 19.9 95 16.32 19.1 4 6 1017.2 0 35.7 37.5 69.7 184.1 198.3 687.9
07/05 20:30 19.8 93 15.88 18.6 0 0 1016.9 0 34.8 36.7 67.7 178.7 191.7 665.0
07/05 20:20 19.9 93 15.98 18.7 0 0 1016.9 0 35.0 36.8 68.1 179.8 193.0 669.5
07/05 20:10 20.3 93 16.35 19.1 0 0 1016.7 0 35.7 37.3 69.4 183.4 197.6 685.7
07/05 20:00 20.4 90 15.92 18.7 0 0 1016.5 0 34.8 36.5 67.3 177.8 190.8 661.7

Last Refresh: 08-May-2026 12:09:21

Bureau of Meteorology